Terminal Aerodrome Forecast
Issued by NWS

Current Version | Previous Version | Text Only | Print | Product List | Glossary On
Versions: 1 2 3 4 5 6 7 8 9 10 11 12 13 14 15 16 17 18 19 20 21 22 23 24
000
FTUS41 KOKX 260500
TAFSWF
TAF
KSWF 260530Z 2606/2712 07010KT P6SM BKN100 BKN250
     FM260800 07006KT P6SM BKN040
     FM261200 07006KT P6SM BKN030
      TEMPO 2613/2616 3SM -SN BR BKN015
     FM261600 06008KT 2SM -SN BR BKN007
     FM261900 06009KT 1SM -SN BR BKN007
     FM262300 04016G24KT 3/4SM -SN BR BKN007
     FM270300 04017G25KT 1/2SM SN FZFG VV005
     FM270700 01016G28KT 1/2SM SN FZFG VV005
      AMD NOT SKED=

USA.gov is the U.S. government's official web portal to all federal, state and local government web resources and services.